createdAt,value
2018-05-03T00:00:55.875Z,0.00
2018-05-03T00:01:56.143Z,0.00
2018-05-03T00:02:56.376Z,0.00
2018-05-03T00:03:56.589Z,0.00
2018-05-03T00:04:56.828Z,0.00
2018-05-03T00:05:57.073Z,0.00
2018-05-03T00:06:57.298Z,0.00
2018-05-03T00:07:57.594Z,0.00
2018-05-03T00:08:57.768Z,0.00
2018-05-03T00:09:58.024Z,0.00
2018-05-03T00:10:58.253Z,0.00
2018-05-03T00:11:58.483Z,0.00
2018-05-03T00:12:58.706Z,0.00
2018-05-03T00:13:58.952Z,0.00
2018-05-03T00:14:59.182Z,0.00
2018-05-03T00:15:59.419Z,0.00
2018-05-03T00:16:59.671Z,0.00
2018-05-03T00:17:59.881Z,0.00
2018-05-03T00:19:00.112Z,0.00
2018-05-03T00:20:00.355Z,0.00
2018-05-03T00:21:00.597Z,0.00
2018-05-03T00:22:00.840Z,0.00
2018-05-03T00:23:01.075Z,0.00
2018-05-03T00:24:01.313Z,0.00
2018-05-03T00:25:01.578Z,0.00
2018-05-03T00:26:01.819Z,0.00
2018-05-03T00:27:02.052Z,0.00
2018-05-03T00:28:02.278Z,0.00
2018-05-03T00:29:02.502Z,0.00
2018-05-03T00:30:02.747Z,0.00
2018-05-03T00:31:02.969Z,0.00
2018-05-03T00:32:03.207Z,0.00
2018-05-03T00:33:03.462Z,0.00
2018-05-03T00:34:03.676Z,0.00
2018-05-03T00:35:03.902Z,0.00
2018-05-03T00:36:04.147Z,0.00
2018-05-03T00:37:04.398Z,0.00
2018-05-03T00:38:04.647Z,0.00
2018-05-03T00:39:04.854Z,0.00
2018-05-03T00:40:05.096Z,0.00
2018-05-03T00:41:05.347Z,0.00
2018-05-03T00:42:05.566Z,0.00
2018-05-03T00:43:05.795Z,0.00
2018-05-03T00:44:06.023Z,0.00
2018-05-03T00:45:06.284Z,0.00
2018-05-03T00:46:06.521Z,0.00
2018-05-03T00:47:06.753Z,0.00
2018-05-03T00:48:06.964Z,0.00
2018-05-03T00:49:07.204Z,0.00
2018-05-03T00:50:07.437Z,0.00
2018-05-03T00:51:07.687Z,0.00
2018-05-03T00:52:07.913Z,0.00
2018-05-03T00:53:08.156Z,0.00
2018-05-03T00:54:08.365Z,0.00
2018-05-03T00:55:08.606Z,0.00
2018-05-03T00:56:08.830Z,0.00
2018-05-03T00:57:09.083Z,0.00
2018-05-03T00:58:09.302Z,0.00
2018-05-03T00:59:09.541Z,0.00
2018-05-03T01:00:09.790Z,0.00
2018-05-03T01:01:10.043Z,0.00
2018-05-03T01:02:10.285Z,0.00
2018-05-03T01:03:10.489Z,0.00
2018-05-03T01:04:10.748Z,0.00
2018-05-03T01:05:10.994Z,0.00
2018-05-03T01:06:11.218Z,0.00
2018-05-03T01:07:11.436Z,0.00
2018-05-03T01:08:11.682Z,0.00
2018-05-03T01:09:11.908Z,0.00
2018-05-03T01:10:12.144Z,0.00
2018-05-03T01:11:12.373Z,0.00
2018-05-03T01:12:12.607Z,0.00
2018-05-03T01:13:12.848Z,0.00
2018-05-03T01:14:13.083Z,0.00
2018-05-03T01:15:13.324Z,0.00
2018-05-03T01:16:13.568Z,0.00
2018-05-03T01:17:13.780Z,0.00
2018-05-03T01:18:14.053Z,0.00
2018-05-03T01:19:14.243Z,0.00
2018-05-03T01:20:14.481Z,0.00
2018-05-03T01:21:14.715Z,0.00
2018-05-03T01:22:14.957Z,0.00
2018-05-03T01:23:15.205Z,0.00
2018-05-03T01:24:15.435Z,0.00
2018-05-03T01:25:15.684Z,0.00
2018-05-03T01:26:15.898Z,0.00
2018-05-03T01:27:16.152Z,0.00
2018-05-03T01:28:16.369Z,0.00
2018-05-03T01:29:16.591Z,0.00
2018-05-03T01:30:16.834Z,0.00
2018-05-03T01:31:17.064Z,0.00
2018-05-03T01:32:17.290Z,0.00
2018-05-03T01:33:17.516Z,0.00
2018-05-03T01:34:17.758Z,0.00
2018-05-03T01:35:17.983Z,0.00
2018-05-03T01:36:18.217Z,0.00
2018-05-03T01:37:18.476Z,0.00
2018-05-03T01:38:18.705Z,0.00
2018-05-03T01:39:18.930Z,0.00
2018-05-03T01:40:19.175Z,0.00
2018-05-03T01:41:19.403Z,0.00
2018-05-03T01:42:19.641Z,0.00
2018-05-03T01:43:19.871Z,0.00
2018-05-03T01:44:20.121Z,0.00
2018-05-03T01:45:20.361Z,0.00
2018-05-03T01:46:20.584Z,0.00
2018-05-03T01:47:20.830Z,0.00
2018-05-03T01:48:21.059Z,0.00
2018-05-03T01:49:21.301Z,0.00
2018-05-03T01:50:21.539Z,0.00
2018-05-03T01:51:21.773Z,0.00
2018-05-03T01:52:22.018Z,0.00
2018-05-03T01:53:22.277Z,0.00
2018-05-03T01:54:22.471Z,0.00
2018-05-03T01:55:22.717Z,0.00
2018-05-03T01:56:22.959Z,0.00
2018-05-03T01:57:23.195Z,0.00
2018-05-03T01:58:23.429Z,0.00
2018-05-03T01:59:23.685Z,0.00
2018-05-03T02:00:23.881Z,0.00
2018-05-03T02:01:24.124Z,0.00
2018-05-03T02:02:24.369Z,0.00
2018-05-03T02:03:24.606Z,0.00
2018-05-03T02:04:24.832Z,0.00
2018-05-03T02:05:25.084Z,0.00
2018-05-03T02:06:25.296Z,0.00
2018-05-03T02:07:25.565Z,0.00
2018-05-03T02:08:25.785Z,0.00
2018-05-03T02:09:26.029Z,0.00
2018-05-03T02:10:26.245Z,0.00
2018-05-03T02:11:26.485Z,0.00
2018-05-03T02:12:26.707Z,0.00
2018-05-03T02:13:26.949Z,0.00
2018-05-03T02:14:27.201Z,0.00
2018-05-03T02:15:27.421Z,0.00
2018-05-03T02:16:27.642Z,0.00
2018-05-03T02:17:27.869Z,0.00
2018-05-03T02:18:28.100Z,0.00
2018-05-03T02:19:28.345Z,0.00
2018-05-03T02:20:28.599Z,0.00
2018-05-03T02:21:28.843Z,0.00
2018-05-03T02:22:29.065Z,0.00
2018-05-03T02:23:29.311Z,0.00
2018-05-03T02:24:29.549Z,0.00
2018-05-03T02:25:29.792Z,0.00
2018-05-03T02:26:30.013Z,0.00
2018-05-03T02:27:30.281Z,0.00
2018-05-03T02:28:30.511Z,0.00
2018-05-03T02:29:30.760Z,0.00
2018-05-03T02:30:30.983Z,0.00
2018-05-03T02:31:31.214Z,0.00
2018-05-03T02:32:31.478Z,0.00
2018-05-03T02:33:31.727Z,0.00
2018-05-03T02:34:31.951Z,0.00
2018-05-03T02:35:32.177Z,0.00
2018-05-03T02:36:32.422Z,0.00
2018-05-03T02:37:32.651Z,0.00
2018-05-03T02:38:32.899Z,0.00
2018-05-03T02:39:33.143Z,0.00
2018-05-03T02:40:33.377Z,0.00
2018-05-03T02:41:33.614Z,0.00
2018-05-03T02:42:33.848Z,0.00
2018-05-03T02:43:34.063Z,0.00
2018-05-03T02:44:34.310Z,0.00
2018-05-03T02:45:34.536Z,0.00
2018-05-03T02:46:34.783Z,0.00
2018-05-03T02:47:35.015Z,0.00
2018-05-03T02:48:35.249Z,0.00
2018-05-03T02:49:35.495Z,0.00
2018-05-03T02:50:35.705Z,0.00
2018-05-03T02:51:35.979Z,0.00
2018-05-03T02:52:36.180Z,0.00
2018-05-03T02:53:36.419Z,0.00
2018-05-03T02:54:36.682Z,0.00
2018-05-03T02:55:36.897Z,0.00
2018-05-03T02:56:37.153Z,0.00
2018-05-03T02:57:37.390Z,0.00
2018-05-03T02:58:37.640Z,0.00
2018-05-03T02:59:37.854Z,0.00
2018-05-03T03:00:38.092Z,0.00
2018-05-03T03:01:38.339Z,0.00
2018-05-03T03:02:38.591Z,0.00
2018-05-03T03:03:38.824Z,0.00
2018-05-03T03:04:39.070Z,0.00
2018-05-03T03:05:39.300Z,0.00
2018-05-03T03:06:39.549Z,0.00
2018-05-03T03:07:39.755Z,0.00
2018-05-03T03:08:40.019Z,0.00
2018-05-03T03:09:40.328Z,0.00
2018-05-03T03:10:40.453Z,0.00
2018-05-03T03:11:40.689Z,0.00
2018-05-03T03:12:40.927Z,0.00
2018-05-03T03:13:41.164Z,0.00
2018-05-03T03:14:41.405Z,0.00
2018-05-03T03:15:41.648Z,0.00
2018-05-03T03:16:41.881Z,0.00
2018-05-03T03:17:42.126Z,0.00
2018-05-03T03:18:42.363Z,0.00
2018-05-03T03:19:42.593Z,0.00
2018-05-03T03:20:42.818Z,0.00
2018-05-03T03:21:43.086Z,0.00
2018-05-03T03:22:43.291Z,0.00
2018-05-03T03:23:43.536Z,0.00
2018-05-03T03:24:43.791Z,0.00
2018-05-03T03:25:44.008Z,0.00
2018-05-03T03:26:44.263Z,0.00
2018-05-03T03:27:44.502Z,0.00
2018-05-03T03:28:44.750Z,0.00
2018-05-03T03:29:44.975Z,0.00
2018-05-03T03:30:45.231Z,0.00
2018-05-03T03:31:45.460Z,0.00
2018-05-03T03:32:45.701Z,0.00
2018-05-03T03:33:45.937Z,0.00
2018-05-03T03:34:46.185Z,0.00
2018-05-03T03:35:46.405Z,0.00
2018-05-03T03:36:46.667Z,0.00
2018-05-03T03:37:46.883Z,0.00
2018-05-03T03:38:47.116Z,0.00
2018-05-03T03:39:47.355Z,0.00
2018-05-03T03:40:47.604Z,0.00
2018-05-03T03:41:47.833Z,0.00
2018-05-03T03:42:48.075Z,0.00
2018-05-03T03:43:48.315Z,0.00
2018-05-03T03:44:48.545Z,0.00
2018-05-03T03:45:48.813Z,0.00
2018-05-03T03:46:49.006Z,0.00
2018-05-03T03:47:49.248Z,0.00
2018-05-03T03:48:49.479Z,0.00
2018-05-03T03:49:49.711Z,0.00
2018-05-03T03:50:49.947Z,0.00
2018-05-03T03:51:50.177Z,0.00
2018-05-03T03:52:50.421Z,0.00
2018-05-03T03:53:50.702Z,0.00
2018-05-03T03:54:50.914Z,5.63
2018-05-03T03:55:51.119Z,5.63
2018-05-03T03:56:51.360Z,5.63
2018-05-03T03:57:51.598Z,5.63
2018-05-03T03:58:51.841Z,5.63
2018-05-03T03:59:52.073Z,5.63
2018-05-03T04:00:52.303Z,5.63
2018-05-03T04:01:52.539Z,5.63
2018-05-03T04:02:52.812Z,11.25
2018-05-03T04:03:53.022Z,11.25
2018-05-03T04:04:53.262Z,11.25
2018-05-03T04:05:53.503Z,11.25
2018-05-03T04:06:53.742Z,11.25
2018-05-03T04:07:53.989Z,16.88
2018-05-03T04:08:54.229Z,16.88
2018-05-03T04:09:54.456Z,16.88
2018-05-03T04:10:54.695Z,16.88
2018-05-03T04:11:54.934Z,22.50
2018-05-03T04:12:55.174Z,22.50
2018-05-03T04:13:55.413Z,22.50
2018-05-03T04:14:55.655Z,22.50
2018-05-03T04:15:55.893Z,22.50
2018-05-03T04:16:56.135Z,22.50
2018-05-03T04:17:56.373Z,28.13
2018-05-03T04:18:56.611Z,28.13
2018-05-03T04:19:56.866Z,28.13
2018-05-03T04:20:57.088Z,28.13
2018-05-03T04:21:57.328Z,28.13
2018-05-03T04:22:57.569Z,28.13
2018-05-03T04:23:57.807Z,28.13
2018-05-03T04:24:58.046Z,28.13
2018-05-03T04:25:58.302Z,28.13
2018-05-03T04:26:58.512Z,28.13
2018-05-03T04:27:58.756Z,28.13
2018-05-03T04:28:59.609Z,28.13
2018-05-03T04:29:59.317Z,22.50
2018-05-03T04:30:59.559Z,22.50
2018-05-03T04:31:59.789Z,22.50
2018-05-03T04:33:09.694Z,28.13
2018-05-03T04:34:01.247Z,28.13
2018-05-03T04:35:00.624Z,28.13
2018-05-03T04:36:00.827Z,28.13
2018-05-03T04:37:01.064Z,28.13
2018-05-03T04:38:01.305Z,28.13
2018-05-03T04:39:01.536Z,28.13
2018-05-03T04:40:09.413Z,28.13
2018-05-03T04:41:02.089Z,28.13
2018-05-03T04:42:02.299Z,33.75
2018-05-03T04:43:02.541Z,33.75
2018-05-03T04:44:02.774Z,33.75
2018-05-03T04:45:03.014Z,33.75
2018-05-03T04:46:03.253Z,39.38
2018-05-03T04:47:11.132Z,45.00
2018-05-03T04:48:03.799Z,45.00
2018-05-03T04:49:04.047Z,50.63
2018-05-03T04:50:04.275Z,50.63
2018-05-03T04:51:04.511Z,56.25
2018-05-03T04:52:04.749Z,56.25
2018-05-03T04:53:04.987Z,61.88
2018-05-03T04:54:05.232Z,61.88
2018-05-03T04:55:05.462Z,67.50
2018-05-03T04:56:05.705Z,73.13
2018-05-03T04:57:05.940Z,78.75
2018-05-03T04:58:06.177Z,78.75
2018-05-03T04:59:06.415Z,84.38
2018-05-03T05:00:06.654Z,90.00
2018-05-03T05:01:06.900Z,90.00
2018-05-03T05:02:07.131Z,95.63
2018-05-03T05:03:07.368Z,101.25
2018-05-03T05:04:07.609Z,106.88
2018-05-03T05:05:07.860Z,112.50
2018-05-03T05:06:08.080Z,118.13
2018-05-03T05:07:08.317Z,129.38
2018-05-03T05:08:08.556Z,135.00
2018-05-03T05:09:08.792Z,135.00
2018-05-03T05:10:09.033Z,140.63
2018-05-03T05:11:09.283Z,146.25
2018-05-03T05:12:09.516Z,146.25
2018-05-03T05:13:09.860Z,151.88
2018-05-03T05:14:09.984Z,151.88
2018-05-03T05:15:10.224Z,151.88
2018-05-03T05:16:10.465Z,151.88
2018-05-03T05:17:10.705Z,151.88
2018-05-03T05:18:10.944Z,151.88
2018-05-03T05:19:11.202Z,146.25
2018-05-03T05:20:11.423Z,146.25
2018-05-03T05:21:11.662Z,146.25
2018-05-03T05:22:11.902Z,146.25
2018-05-03T05:23:12.143Z,146.25
2018-05-03T05:24:12.386Z,146.25
2018-05-03T05:25:12.626Z,157.50
2018-05-03T05:26:12.861Z,157.50
2018-05-03T05:27:13.100Z,151.88
2018-05-03T05:28:13.337Z,151.88
2018-05-03T05:29:13.577Z,146.25
2018-05-03T05:30:13.816Z,146.25
2018-05-03T05:31:14.060Z,140.63
2018-05-03T05:32:14.298Z,135.00
2018-05-03T05:33:14.549Z,129.38
2018-05-03T05:34:14.776Z,129.38
2018-05-03T05:35:15.018Z,123.75
2018-05-03T05:36:15.258Z,123.75
2018-05-03T05:37:15.507Z,123.75
2018-05-03T05:38:15.745Z,123.75
2018-05-03T05:39:15.982Z,123.75
2018-05-03T05:40:16.221Z,123.75
2018-05-03T05:41:16.461Z,129.38
2018-05-03T05:42:16.700Z,140.63
2018-05-03T05:43:16.940Z,135.00
2018-05-03T05:44:17.266Z,140.63
2018-05-03T05:45:17.418Z,140.63
2018-05-03T05:46:17.657Z,146.25
2018-05-03T05:47:17.896Z,146.25
2018-05-03T05:48:18.138Z,151.88
2018-05-03T05:49:18.379Z,151.88
2018-05-03T05:50:18.620Z,151.88
2018-05-03T05:51:18.881Z,151.88
2018-05-03T05:52:19.100Z,146.25
2018-05-03T05:53:19.344Z,140.63
2018-05-03T05:54:19.582Z,135.00
2018-05-03T05:55:19.825Z,135.00
2018-05-03T05:56:20.065Z,135.00
2018-05-03T05:57:20.307Z,129.38
2018-05-03T05:58:20.551Z,129.38
2018-05-03T05:59:20.791Z,129.38
2018-05-03T06:00:21.030Z,135.00
2018-05-03T06:01:21.270Z,135.00
2018-05-03T06:02:21.510Z,140.63
2018-05-03T06:03:21.747Z,140.63
2018-05-03T06:04:22.093Z,146.25
2018-05-03T06:05:22.233Z,157.50
2018-05-03T06:06:22.473Z,163.13
2018-05-03T06:07:22.714Z,174.38
2018-05-03T06:08:22.957Z,185.63
2018-05-03T06:09:23.195Z,191.25
2018-05-03T06:10:23.508Z,202.50
2018-05-03T06:11:23.675Z,213.75
2018-05-03T06:12:24.013Z,219.38
2018-05-03T06:13:24.160Z,230.63
2018-05-03T06:14:24.397Z,236.25
2018-05-03T06:15:24.636Z,241.88
2018-05-03T06:16:24.877Z,247.50
2018-05-03T06:17:25.117Z,253.13
2018-05-03T06:18:25.358Z,264.38
2018-05-03T06:19:25.632Z,270.00
2018-05-03T06:20:25.841Z,281.25
2018-05-03T06:21:26.080Z,286.88
2018-05-03T06:22:26.319Z,292.50
2018-05-03T06:23:26.559Z,303.75
2018-05-03T06:24:26.792Z,309.38
2018-05-03T06:25:27.038Z,320.63
2018-05-03T06:26:27.277Z,326.25
2018-05-03T06:27:27.519Z,337.50
2018-05-03T06:28:27.762Z,348.75
2018-05-03T06:29:28.002Z,365.63
2018-05-03T06:30:28.245Z,376.88
2018-05-03T06:31:28.485Z,382.50
2018-05-03T06:32:28.731Z,393.75
2018-05-03T06:33:28.967Z,410.63
2018-05-03T06:34:29.208Z,410.63
2018-05-03T06:35:29.451Z,416.25
2018-05-03T06:36:29.692Z,410.63
2018-05-03T06:37:29.933Z,421.88
2018-05-03T06:38:30.246Z,427.50
2018-05-03T06:39:30.416Z,421.88
2018-05-03T06:40:30.658Z,416.25
2018-05-03T06:41:30.900Z,421.88
2018-05-03T06:42:31.145Z,410.63
2018-05-03T06:43:31.391Z,421.88
2018-05-03T06:44:31.629Z,416.25
2018-05-03T06:45:31.872Z,421.88
2018-05-03T06:46:32.114Z,427.50
2018-05-03T06:47:32.357Z,433.13
2018-05-03T06:48:32.600Z,438.75
2018-05-03T06:49:32.842Z,438.75
2018-05-03T06:50:33.083Z,427.50
2018-05-03T06:51:33.396Z,421.88
2018-05-03T06:52:33.571Z,416.25
2018-05-03T06:53:33.810Z,416.25
2018-05-03T06:54:34.051Z,416.25
2018-05-03T06:55:34.303Z,416.25
2018-05-03T06:56:34.539Z,416.25
2018-05-03T06:57:34.786Z,421.88
2018-05-03T06:58:35.109Z,427.50
2018-05-03T06:59:35.267Z,433.13
2018-05-03T07:00:35.513Z,450.00
2018-05-03T07:01:35.751Z,455.63
2018-05-03T07:02:35.997Z,466.88
2018-05-03T07:03:36.251Z,478.13
2018-05-03T07:04:36.475Z,489.38
2018-05-03T07:05:36.719Z,495.00
2018-05-03T07:06:36.964Z,511.88
2018-05-03T07:07:37.209Z,511.88
2018-05-03T07:08:37.457Z,511.88
2018-05-03T07:09:37.695Z,523.13
2018-05-03T07:10:37.939Z,528.75
2018-05-03T07:11:38.180Z,540.00
2018-05-03T07:12:38.424Z,551.25
2018-05-03T07:13:38.666Z,562.50
2018-05-03T07:14:38.910Z,568.13
2018-05-03T07:15:39.155Z,573.75
2018-05-03T07:16:39.393Z,568.13
2018-05-03T07:17:39.639Z,545.63
2018-05-03T07:18:39.883Z,534.38
2018-05-03T07:19:40.124Z,528.75
2018-05-03T07:20:40.370Z,534.38
2018-05-03T07:21:40.611Z,551.25
2018-05-03T07:22:40.855Z,528.75
2018-05-03T07:23:41.099Z,523.13
2018-05-03T07:24:41.341Z,517.50
2018-05-03T07:25:41.592Z,506.25
2018-05-03T07:26:41.832Z,495.00
2018-05-03T07:27:42.073Z,478.13
2018-05-03T07:28:42.314Z,472.50
2018-05-03T07:29:42.556Z,472.50
2018-05-03T07:30:42.801Z,478.13
2018-05-03T07:31:43.043Z,478.13
2018-05-03T07:32:43.286Z,489.38
2018-05-03T07:33:43.530Z,495.00
2018-05-03T07:34:43.811Z,500.63
2018-05-03T07:35:44.019Z,495.00
2018-05-03T07:36:44.264Z,489.38
2018-05-03T07:37:44.517Z,466.88
2018-05-03T07:38:44.750Z,455.63
2018-05-03T07:39:44.994Z,438.75
2018-05-03T07:40:45.339Z,427.50
2018-05-03T07:41:45.483Z,421.88
2018-05-03T07:42:45.727Z,416.25
2018-05-03T07:43:45.988Z,410.63
2018-05-03T07:44:46.217Z,410.63
2018-05-03T07:45:46.458Z,405.00
2018-05-03T07:46:46.698Z,405.00
2018-05-03T07:47:46.939Z,405.00
2018-05-03T07:48:47.182Z,410.63
2018-05-03T07:49:47.425Z,410.63
2018-05-03T07:50:47.669Z,416.25
2018-05-03T07:51:47.913Z,416.25
2018-05-03T07:52:48.162Z,410.63
2018-05-03T07:53:48.396Z,405.00
2018-05-03T07:54:48.642Z,399.38
2018-05-03T07:55:48.887Z,399.38
2018-05-03T07:56:49.132Z,393.75
2018-05-03T07:57:49.375Z,388.13
2018-05-03T07:58:49.624Z,382.50
2018-05-03T07:59:49.866Z,376.88
2018-05-03T08:00:50.106Z,376.88
2018-05-03T08:01:50.351Z,376.88
2018-05-03T08:02:50.599Z,376.88
2018-05-03T08:03:50.840Z,376.88
2018-05-03T08:04:51.083Z,376.88
2018-05-03T08:05:51.329Z,388.13
2018-05-03T08:06:51.572Z,393.75
2018-05-03T08:07:51.817Z,405.00
2018-05-03T08:08:52.064Z,416.25
2018-05-03T08:09:52.306Z,427.50
2018-05-03T08:10:52.550Z,433.13
2018-05-03T08:11:52.795Z,438.75
2018-05-03T08:12:53.039Z,450.00
2018-05-03T08:13:53.282Z,450.00
2018-05-03T08:14:53.525Z,461.25
2018-05-03T08:15:53.772Z,466.88
2018-05-03T08:16:54.017Z,478.13
2018-05-03T08:17:54.262Z,489.38
2018-05-03T08:18:54.507Z,500.63
2018-05-03T08:19:54.752Z,511.88
2018-05-03T08:20:54.996Z,517.50
2018-05-03T08:21:55.242Z,528.75
2018-05-03T08:22:55.488Z,534.38
2018-05-03T08:23:55.731Z,534.38
2018-05-03T08:24:55.977Z,534.38
2018-05-03T08:25:56.222Z,534.38
2018-05-03T08:26:56.465Z,534.38
2018-05-03T08:27:56.713Z,534.38
2018-05-03T08:28:56.952Z,540.00
2018-05-03T08:29:57.195Z,540.00
2018-05-03T08:30:57.438Z,556.88
2018-05-03T08:31:57.682Z,568.13
2018-05-03T08:32:57.930Z,590.63
2018-05-03T08:33:58.174Z,601.88
2018-05-03T08:34:58.417Z,624.38
2018-05-03T08:35:58.661Z,646.88
2018-05-03T08:36:58.907Z,669.38
2018-05-03T08:37:59.151Z,686.25
2018-05-03T08:38:59.400Z,703.13
2018-05-03T08:39:59.641Z,753.75
2018-05-03T08:40:59.882Z,815.63
2018-05-03T08:42:00.129Z,855.00
2018-05-03T08:43:00.371Z,866.25
2018-05-03T08:44:00.616Z,871.88
2018-05-03T08:45:00.864Z,900.00
2018-05-03T08:46:01.108Z,916.88
2018-05-03T08:47:01.353Z,933.75
2018-05-03T08:48:01.596Z,928.13
2018-05-03T08:49:01.844Z,956.25
2018-05-03T08:50:02.083Z,961.88
2018-05-03T08:51:02.338Z,956.25
2018-05-03T08:52:02.583Z,1012.50
2018-05-03T08:53:02.830Z,928.13
2018-05-03T08:54:03.074Z,866.25
2018-05-03T08:55:03.327Z,810.00
2018-05-03T08:56:03.570Z,815.63
2018-05-03T08:57:03.819Z,804.38
2018-05-03T08:58:04.064Z,804.38
2018-05-03T08:59:04.312Z,781.88
2018-05-03T09:00:04.558Z,793.13
2018-05-03T09:01:04.804Z,810.00
2018-05-03T09:02:05.054Z,810.00
2018-05-03T09:03:05.304Z,793.13
2018-05-03T09:04:05.548Z,759.38
2018-05-03T09:05:05.798Z,770.63
2018-05-03T09:06:06.042Z,753.75
2018-05-03T09:07:06.289Z,731.25
2018-05-03T09:08:06.535Z,725.63
2018-05-03T09:09:06.782Z,720.00
2018-05-03T09:10:07.030Z,736.88
2018-05-03T09:11:07.277Z,765.00
2018-05-03T09:12:07.523Z,810.00
2018-05-03T09:13:07.771Z,849.38
2018-05-03T09:14:08.018Z,731.25
2018-05-03T09:15:08.263Z,697.50
2018-05-03T09:16:08.510Z,748.13
2018-05-03T09:17:08.758Z,849.38
2018-05-03T09:18:09.005Z,821.25
2018-05-03T09:19:09.251Z,826.88
2018-05-03T09:20:09.500Z,860.63
2018-05-03T09:21:09.742Z,770.63
2018-05-03T09:22:09.990Z,731.25
2018-05-03T09:23:10.234Z,731.25
2018-05-03T09:24:10.484Z,714.38
2018-05-03T09:25:10.729Z,765.00
2018-05-03T09:26:11.007Z,843.75
2018-05-03T09:27:11.223Z,838.13
2018-05-03T09:28:11.468Z,849.38
2018-05-03T09:29:11.717Z,860.63
2018-05-03T09:30:11.963Z,860.63
2018-05-03T09:31:12.213Z,849.38
2018-05-03T09:32:12.457Z,843.75
2018-05-03T09:33:12.705Z,838.13
2018-05-03T09:34:12.958Z,838.13
2018-05-03T09:35:13.201Z,826.88
2018-05-03T09:36:13.454Z,821.25
2018-05-03T09:37:13.695Z,815.63
2018-05-03T09:38:13.944Z,815.63
2018-05-03T09:39:14.263Z,815.63
2018-05-03T09:40:14.440Z,810.00
2018-05-03T09:41:14.685Z,787.50
2018-05-03T09:42:14.934Z,781.88
2018-05-03T09:43:15.181Z,765.00
2018-05-03T09:44:15.427Z,765.00
2018-05-03T09:45:15.676Z,765.00
2018-05-03T09:46:15.925Z,770.63
2018-05-03T09:47:16.170Z,776.25
2018-05-03T09:48:16.421Z,781.88
2018-05-03T09:49:16.677Z,793.13
2018-05-03T09:50:16.918Z,804.38
2018-05-03T09:51:17.166Z,832.50
2018-05-03T09:52:17.413Z,832.50
2018-05-03T09:53:17.661Z,838.13
2018-05-03T09:54:17.910Z,753.75
2018-05-03T09:55:18.157Z,731.25
2018-05-03T09:56:18.405Z,691.88
2018-05-03T09:57:18.653Z,652.50
2018-05-03T09:58:18.904Z,658.13
2018-05-03T09:59:19.204Z,663.75
2018-05-03T10:00:19.401Z,652.50
2018-05-03T10:01:19.645Z,635.63
2018-05-03T10:02:19.894Z,652.50
2018-05-03T10:03:20.148Z,624.38
2018-05-03T10:04:20.393Z,624.38
2018-05-03T10:05:20.642Z,613.13
2018-05-03T10:06:20.890Z,601.88
2018-05-03T10:07:21.138Z,590.63
2018-05-03T10:08:21.387Z,556.88
2018-05-03T10:09:21.634Z,534.38
2018-05-03T10:10:21.890Z,534.38
2018-05-03T10:11:22.132Z,540.00
2018-05-03T10:12:22.381Z,551.25
2018-05-03T10:13:22.638Z,551.25
2018-05-03T10:14:22.882Z,551.25
2018-05-03T10:15:23.136Z,556.88
2018-05-03T10:16:23.384Z,562.50
2018-05-03T10:17:23.619Z,568.13
2018-05-03T10:18:23.870Z,579.38
2018-05-03T10:19:24.116Z,579.38
2018-05-03T10:20:24.368Z,579.38
2018-05-03T10:21:24.612Z,579.38
2018-05-03T10:22:24.864Z,585.00
2018-05-03T10:23:25.117Z,590.63
2018-05-03T10:24:25.356Z,596.25
2018-05-03T10:25:25.608Z,590.63
2018-05-03T10:26:25.851Z,601.88
2018-05-03T10:27:26.100Z,618.75
2018-05-03T10:28:26.346Z,635.63
2018-05-03T10:29:26.593Z,658.13
2018-05-03T10:30:26.839Z,686.25
2018-05-03T10:31:27.088Z,703.13
2018-05-03T10:32:27.335Z,725.63
2018-05-03T10:33:27.582Z,736.88
2018-05-03T10:34:27.829Z,748.13
2018-05-03T10:35:28.076Z,793.13
2018-05-03T10:36:28.326Z,736.88
2018-05-03T10:37:28.573Z,725.63
2018-05-03T10:38:28.819Z,720.00
2018-05-03T10:39:29.065Z,720.00
2018-05-03T10:40:29.315Z,708.75
2018-05-03T10:41:29.563Z,697.50
2018-05-03T10:42:29.809Z,708.75
2018-05-03T10:43:30.055Z,720.00
2018-05-03T10:44:30.302Z,742.50
2018-05-03T10:45:30.560Z,753.75
2018-05-03T10:46:30.797Z,765.00
2018-05-03T10:47:31.032Z,933.75
2018-05-03T10:48:31.301Z,736.88
2018-05-03T10:49:31.547Z,720.00
2018-05-03T10:50:31.791Z,708.75
2018-05-03T10:51:32.043Z,703.13
2018-05-03T10:52:32.289Z,691.88
2018-05-03T10:53:32.533Z,697.50
2018-05-03T10:54:32.782Z,686.25
2018-05-03T10:55:33.032Z,675.00
2018-05-03T10:56:33.286Z,663.75
2018-05-03T10:57:33.611Z,658.13
2018-05-03T10:58:33.777Z,658.13
2018-05-03T10:59:34.028Z,663.75
2018-05-03T11:00:34.276Z,663.75
2018-05-03T11:01:34.528Z,669.38
2018-05-03T11:02:34.774Z,675.00
2018-05-03T11:03:35.021Z,680.63
2018-05-03T11:04:35.266Z,686.25
2018-05-03T11:05:35.604Z,697.50
2018-05-03T11:06:35.761Z,708.75
2018-05-03T11:07:36.008Z,708.75
2018-05-03T11:08:36.255Z,714.38
2018-05-03T11:09:36.503Z,736.88
2018-05-03T11:10:36.752Z,731.25
2018-05-03T11:11:37.002Z,736.88
2018-05-03T11:12:37.251Z,736.88
2018-05-03T11:13:37.498Z,736.88
2018-05-03T11:14:37.752Z,759.38
2018-05-03T11:15:37.996Z,776.25
2018-05-03T11:16:38.256Z,804.38
2018-05-03T11:17:38.491Z,838.13
2018-05-03T11:18:38.740Z,883.13
2018-05-03T11:19:38.988Z,916.88
2018-05-03T11:20:39.237Z,961.88
2018-05-03T11:21:39.487Z,995.63
2018-05-03T11:22:39.736Z,1029.38
2018-05-03T11:23:39.984Z,1057.50
2018-05-03T11:24:40.231Z,1096.88
2018-05-03T11:25:40.482Z,1125.00
2018-05-03T11:26:40.731Z,1192.50
2018-05-03T11:27:40.977Z,1293.75
2018-05-03T11:28:41.227Z,1451.25
2018-05-03T11:29:41.475Z,1552.50
2018-05-03T11:30:41.726Z,1395.00
2018-05-03T11:31:41.975Z,1569.38
2018-05-03T11:32:42.246Z,1693.13
2018-05-03T11:33:42.473Z,1546.88
2018-05-03T11:34:42.745Z,1344.38
2018-05-03T11:35:42.974Z,1743.75
2018-05-03T11:36:43.256Z,1220.63
2018-05-03T11:37:43.475Z,1181.25
2018-05-03T11:38:43.726Z,1119.38
2018-05-03T11:39:43.978Z,1113.75
2018-05-03T11:40:44.226Z,1125.00
2018-05-03T11:41:44.475Z,1119.38
2018-05-03T11:42:44.767Z,1096.88
2018-05-03T11:43:44.976Z,1080.00
2018-05-03T11:44:45.227Z,1057.50
2018-05-03T11:45:45.476Z,1035.00
2018-05-03T11:46:45.727Z,1023.75
2018-05-03T11:47:45.980Z,1006.88
2018-05-03T11:48:46.236Z,978.75
2018-05-03T11:49:46.476Z,956.25
2018-05-03T11:50:46.727Z,933.75
2018-05-03T11:51:46.979Z,928.13
2018-05-03T11:52:47.228Z,911.25
2018-05-03T11:53:47.476Z,905.63
2018-05-03T11:54:47.727Z,905.63
2018-05-03T11:55:47.979Z,905.63
2018-05-03T11:56:48.231Z,911.25
2018-05-03T11:57:48.482Z,911.25
2018-05-03T11:58:48.732Z,916.88
2018-05-03T11:59:48.986Z,928.13
2018-05-03T12:00:49.234Z,933.75
2018-05-03T12:01:49.485Z,939.38
2018-05-03T12:02:49.738Z,950.63
2018-05-03T12:03:49.989Z,967.50
2018-05-03T12:04:50.238Z,978.75
2018-05-03T12:05:50.489Z,995.63
2018-05-03T12:06:50.737Z,1018.13
2018-05-03T12:07:50.998Z,1035.00
2018-05-03T12:08:51.234Z,1051.88
2018-05-03T12:09:51.487Z,1068.75
2018-05-03T12:10:51.739Z,1096.88
2018-05-03T12:11:52.049Z,1108.13
2018-05-03T12:12:52.239Z,1170.00
2018-05-03T12:13:52.491Z,1186.88
2018-05-03T12:14:52.742Z,1395.00
2018-05-03T12:15:52.992Z,1186.88
2018-05-03T12:16:53.241Z,1153.13
2018-05-03T12:17:53.492Z,1175.63
2018-05-03T12:18:53.745Z,1192.50
2018-05-03T12:19:53.993Z,1226.25
2018-05-03T12:20:54.243Z,1271.25
2018-05-03T12:21:54.493Z,1310.63
2018-05-03T12:22:54.743Z,1248.75
2018-05-03T12:23:54.993Z,1316.25
2018-05-03T12:24:55.245Z,1372.50
2018-05-03T12:25:55.500Z,1265.63
2018-05-03T12:26:55.748Z,1237.50
2018-05-03T12:27:56.001Z,1254.38
2018-05-03T12:28:56.253Z,1265.63
2018-05-03T12:29:56.500Z,1282.50
2018-05-03T12:30:56.751Z,1316.25
2018-05-03T12:31:57.006Z,1395.00
2018-05-03T12:32:57.252Z,1434.38
2018-05-03T12:33:57.504Z,1603.13
2018-05-03T12:34:57.844Z,1929.38
2018-05-03T12:35:58.005Z,2593.13
2018-05-03T12:36:58.256Z,2885.63
2018-05-03T12:37:58.509Z,1929.38
2018-05-03T12:38:58.761Z,1805.63
2018-05-03T12:39:59.012Z,1501.88
2018-05-03T12:40:59.262Z,1535.63
2018-05-03T12:41:59.517Z,1445.63
2018-05-03T12:42:59.769Z,1400.63
2018-05-03T12:44:00.018Z,1170.00
2018-05-03T12:45:00.277Z,1164.38
2018-05-03T12:46:00.521Z,1068.75
2018-05-03T12:47:00.773Z,1113.75